createdAt,value
2018-12-14T00:01:52.117Z,11.33
2018-12-14T00:04:24.540Z,13.23
2018-12-14T00:06:54.243Z,11.93
2018-12-14T00:09:21.838Z,11.97
2018-12-14T00:11:51.712Z,11.03
2018-12-14T00:14:22.381Z,12.20
2018-12-14T00:16:52.769Z,11.17
2018-12-14T00:19:24.490Z,11.57
2018-12-14T00:21:54.049Z,10.80
2018-12-14T00:24:21.997Z,10.77
2018-12-14T00:29:19.875Z,11.90
2018-12-14T00:31:49.241Z,13.80
2018-12-14T00:34:17.359Z,11.30
2018-12-14T00:36:47.021Z,12.27
2018-12-14T00:39:16.892Z,11.43
2018-12-14T00:41:51.779Z,10.90
2018-12-14T00:44:18.212Z,9.47
2018-12-14T00:46:49.872Z,10.80
2018-12-14T00:49:17.689Z,10.57
2018-12-14T00:51:45.428Z,12.23
2018-12-14T00:54:15.119Z,11.60
2018-12-14T00:56:44.724Z,11.30
2018-12-14T00:59:12.430Z,11.97
2018-12-14T01:01:42.226Z,11.27
2018-12-14T01:04:11.970Z,10.60
2018-12-14T01:06:41.558Z,12.10
2018-12-14T01:09:14.029Z,10.87
2018-12-14T01:11:43.912Z,11.23
2018-12-14T01:14:14.775Z,10.77
2018-12-14T01:16:44.369Z,11.10
2018-12-14T01:19:14.357Z,11.50
2018-12-14T01:21:44.073Z,10.93
2018-12-14T01:24:13.951Z,11.23
2018-12-14T01:26:41.631Z,10.90
2018-12-14T01:31:40.084Z,10.07
2018-12-14T01:34:09.965Z,10.93
2018-12-14T01:36:39.689Z,9.10
2018-12-14T01:39:09.641Z,10.87
2018-12-14T01:41:40.498Z,10.00
2018-12-14T01:44:12.866Z,10.80
2018-12-14T01:46:42.377Z,10.47
2018-12-14T01:49:13.044Z,10.33
2018-12-14T01:51:42.661Z,12.00
2018-12-14T01:54:10.471Z,10.97
2018-12-14T01:56:41.610Z,10.47
2018-12-14T01:59:11.140Z,9.97
2018-12-14T02:01:38.906Z,10.30
2018-12-14T02:04:08.608Z,10.57
2018-12-14T02:06:38.501Z,11.73
2018-12-14T02:09:08.906Z,10.30
2018-12-14T02:11:39.847Z,10.57
2018-12-14T02:14:09.523Z,9.50
2018-12-14T02:16:39.544Z,9.20
2018-12-14T02:19:11.148Z,9.10
2018-12-14T02:21:41.539Z,8.90
2018-12-14T02:24:13.868Z,10.50
2018-12-14T02:26:43.719Z,10.23
2018-12-14T02:29:14.382Z,8.90
2018-12-14T02:31:46.936Z,10.50
2018-12-14T02:34:17.043Z,10.50
2018-12-14T02:36:46.495Z,11.40
2018-12-14T02:39:16.607Z,13.80
2018-12-14T02:41:46.870Z,10.87
2018-12-14T02:44:16.470Z,13.00
2018-12-14T02:46:46.335Z,10.53
2018-12-14T02:49:16.125Z,10.50
2018-12-14T02:51:45.734Z,11.97
2018-12-14T02:54:15.549Z,9.40
2018-12-14T02:56:45.228Z,11.30
2018-12-14T02:59:14.778Z,10.70
2018-12-14T03:01:44.427Z,9.63
2018-12-14T03:04:17.174Z,9.17
2018-12-14T03:06:47.200Z,11.30
2018-12-14T03:09:17.048Z,10.57
2018-12-14T03:11:44.867Z,9.97
2018-12-14T03:14:17.455Z,9.30
2018-12-14T03:16:47.888Z,9.77
2018-12-14T03:19:16.100Z,10.53
2018-12-14T03:21:46.904Z,9.43
2018-12-14T03:24:19.742Z,10.67
2018-12-14T03:26:51.737Z,9.63
2018-12-14T03:29:19.870Z,9.90
2018-12-14T03:31:50.026Z,10.53
2018-12-14T03:39:14.883Z,9.07
2018-12-14T03:41:44.829Z,10.33
2018-12-14T03:44:12.692Z,10.10
2018-12-14T03:46:42.642Z,9.50
2018-12-14T03:49:12.936Z,10.10
2018-12-14T03:51:42.755Z,9.33
2018-12-14T03:54:10.578Z,9.77
2018-12-14T03:56:40.765Z,9.60
2018-12-14T03:59:10.301Z,8.90
2018-12-14T04:01:40.070Z,9.43
2018-12-14T04:04:10.039Z,9.07
2018-12-14T04:06:40.090Z,10.53
2018-12-14T04:09:10.098Z,9.97
2018-12-14T04:11:39.739Z,10.00
2018-12-14T04:14:09.617Z,10.17
2018-12-14T04:16:39.544Z,9.40
2018-12-14T04:19:07.280Z,10.87
2018-12-14T04:21:37.479Z,10.87
2018-12-14T04:24:06.365Z,10.60
2018-12-14T04:26:36.197Z,9.57
2018-12-14T04:29:06.184Z,8.77
2018-12-14T04:31:36.231Z,9.53
2018-12-14T04:34:07.029Z,8.83
2018-12-14T04:36:36.652Z,9.47
2018-12-14T04:39:06.519Z,10.73
2018-12-14T04:46:33.149Z,9.30
2018-12-14T04:49:03.181Z,9.37
2018-12-14T04:51:32.918Z,10.13
2018-12-14T04:54:02.738Z,9.70
2018-12-14T04:56:32.701Z,10.10
2018-12-14T04:59:02.807Z,10.83
2018-12-14T05:01:32.318Z,13.17
2018-12-14T05:04:02.525Z,11.63
2018-12-14T05:06:32.457Z,8.97
2018-12-14T05:09:00.353Z,11.83
2018-12-14T05:11:28.362Z,28.73
2018-12-14T05:13:58.432Z,9.90
2018-12-14T05:16:28.259Z,10.03
2018-12-14T05:18:58.100Z,10.10
2018-12-14T05:21:31.088Z,8.80
2018-12-14T05:24:01.145Z,9.17
2018-12-14T05:26:31.091Z,10.47
2018-12-14T05:29:01.215Z,8.67
2018-12-14T05:31:31.329Z,9.20
2018-12-14T05:34:01.212Z,10.00
2018-12-14T05:36:31.342Z,8.33
2018-12-14T05:39:01.314Z,9.27
2018-12-14T05:41:32.432Z,9.13
2018-12-14T05:44:02.429Z,8.93
2018-12-14T05:46:30.276Z,8.80
2018-12-14T05:49:01.308Z,9.20
2018-12-14T05:51:31.018Z,7.97
2018-12-14T05:54:00.969Z,9.97
2018-12-14T05:56:31.047Z,9.27
2018-12-14T05:59:01.998Z,9.83
2018-12-14T06:01:31.915Z,8.60
2018-12-14T06:04:02.095Z,9.53
2018-12-14T06:06:29.595Z,8.87
2018-12-14T06:08:59.783Z,9.53
2018-12-14T06:11:29.539Z,10.17
2018-12-14T06:13:59.473Z,9.70
2018-12-14T06:16:28.970Z,9.67
2018-12-14T06:19:00.954Z,10.53
2018-12-14T06:24:32.019Z,10.47
2018-12-14T06:27:02.893Z,11.10
2018-12-14T06:29:40.918Z,9.77
2018-12-14T06:32:11.675Z,10.57
2018-12-14T06:34:41.756Z,10.43
2018-12-14T06:37:11.995Z,9.87
2018-12-14T06:39:41.381Z,9.83
2018-12-14T06:42:09.488Z,8.87
2018-12-14T06:44:42.640Z,10.30
2018-12-14T06:47:12.499Z,10.20
2018-12-14T06:49:40.240Z,10.73
2018-12-14T06:54:39.089Z,10.07
2018-12-14T06:57:08.913Z,8.53
2018-12-14T07:02:43.083Z,8.10
2018-12-14T07:05:13.043Z,8.60
2018-12-14T07:07:42.574Z,7.90
2018-12-14T07:10:15.626Z,8.33
2018-12-14T07:12:46.489Z,9.50
2018-12-14T07:15:16.484Z,8.90
2018-12-14T07:17:46.630Z,7.70
2018-12-14T07:20:16.592Z,7.90
2018-12-14T07:22:46.260Z,6.93
2018-12-14T07:25:16.541Z,8.33
2018-12-14T07:30:49.034Z,7.60
2018-12-14T07:33:26.860Z,7.50
2018-12-14T07:35:57.040Z,7.47
2018-12-14T07:38:29.789Z,8.57
2018-12-14T07:40:59.805Z,9.40
2018-12-14T07:43:30.064Z,8.83
2018-12-14T07:46:13.813Z,8.67
2018-12-14T07:48:43.037Z,7.93
2018-12-14T07:51:13.326Z,7.73
2018-12-14T07:53:42.904Z,10.13
2018-12-14T07:56:12.565Z,8.63
2018-12-14T07:58:42.520Z,9.73
2018-12-14T08:01:12.832Z,8.00
2018-12-14T08:03:42.511Z,9.30
2018-12-14T08:06:11.878Z,8.17
2018-12-14T08:08:41.783Z,8.73
2018-12-14T08:11:11.225Z,7.97
2018-12-14T08:13:40.965Z,10.17
2018-12-14T08:16:10.570Z,7.93
2018-12-14T08:18:40.071Z,9.07
2018-12-14T08:21:09.910Z,8.63
2018-12-14T08:23:39.357Z,7.43
2018-12-14T08:26:09.097Z,7.37
2018-12-14T08:28:38.748Z,6.40
2018-12-14T08:31:08.507Z,7.23
2018-12-14T08:33:38.212Z,8.47
2018-12-14T08:36:08.215Z,7.67
2018-12-14T08:38:37.626Z,7.57
2018-12-14T08:41:07.374Z,8.43
2018-12-14T08:43:41.391Z,8.00
2018-12-14T08:46:08.587Z,8.10
2018-12-14T08:48:38.264Z,7.30
2018-12-14T08:51:07.891Z,7.80
2018-12-14T08:53:37.855Z,6.70
2018-12-14T08:56:06.272Z,7.80
2018-12-14T08:58:35.931Z,6.80
2018-12-14T09:08:31.721Z,8.37
2018-12-14T09:11:00.160Z,7.23
2018-12-14T09:13:32.922Z,7.77
2018-12-14T09:16:05.981Z,7.77
2018-12-14T09:18:36.907Z,9.07
2018-12-14T09:21:07.844Z,8.43
2018-12-14T09:23:40.994Z,8.33
2018-12-14T09:26:10.941Z,7.23
2018-12-14T09:28:40.562Z,7.70
2018-12-14T09:31:11.262Z,7.47
2018-12-14T09:33:38.898Z,8.53
2018-12-14T09:36:06.848Z,8.20
2018-12-14T09:38:40.410Z,9.20
2018-12-14T09:41:16.018Z,9.10
2018-12-14T09:43:41.853Z,9.63
2018-12-14T09:49:14.266Z,8.33
2018-12-14T09:51:43.941Z,9.47
2018-12-14T09:54:13.631Z,9.73
2018-12-14T09:56:43.254Z,8.17
2018-12-14T09:59:13.010Z,9.30
2018-12-14T10:01:43.017Z,8.67
2018-12-14T10:04:10.580Z,9.93
2018-12-14T10:06:40.835Z,9.40
2018-12-14T10:09:10.886Z,9.13
2018-12-14T10:11:40.564Z,8.17
2018-12-14T10:17:15.987Z,8.43
2018-12-14T10:19:45.600Z,8.63
2018-12-14T10:22:15.254Z,10.60
2018-12-14T10:24:45.236Z,9.13
2018-12-14T10:27:15.984Z,8.63
2018-12-14T10:29:45.899Z,8.43
2018-12-14T10:32:15.602Z,8.30
2018-12-14T10:34:47.972Z,9.17
2018-12-14T10:37:15.951Z,9.70
2018-12-14T10:39:48.286Z,9.53
2018-12-14T10:42:18.134Z,8.90
2018-12-14T10:44:50.626Z,8.40
2018-12-14T10:47:20.575Z,9.37
2018-12-14T10:49:50.456Z,9.57
2018-12-14T10:52:20.571Z,9.30
2018-12-14T10:54:50.190Z,8.80
2018-12-14T10:57:19.864Z,8.93
2018-12-14T10:59:47.367Z,9.70
2018-12-14T11:02:17.770Z,8.97
2018-12-14T11:07:48.663Z,8.13
2018-12-14T11:12:47.123Z,8.47
2018-12-14T11:15:16.722Z,8.53
2018-12-14T11:17:44.269Z,8.50
2018-12-14T11:20:13.939Z,8.27
2018-12-14T11:25:46.982Z,7.97
2018-12-14T11:28:16.832Z,8.67
2018-12-14T11:30:44.370Z,7.60
2018-12-14T11:33:14.237Z,7.67
2018-12-14T11:35:43.837Z,8.33
2018-12-14T11:38:13.444Z,8.47
2018-12-14T11:40:45.915Z,7.97
2018-12-14T11:43:15.887Z,8.80
2018-12-14T11:45:45.367Z,8.67
2018-12-14T11:51:18.087Z,8.93
2018-12-14T11:56:50.551Z,8.67
2018-12-14T11:59:21.238Z,9.03
2018-12-14T12:01:51.037Z,8.10
2018-12-14T12:04:20.690Z,8.27
2018-12-14T12:06:50.383Z,9.60
2018-12-14T12:09:21.032Z,8.20
2018-12-14T12:14:19.650Z,8.20
2018-12-14T12:16:49.553Z,8.53
2018-12-14T12:19:17.144Z,8.93
2018-12-14T12:21:47.111Z,8.17
2018-12-14T12:24:16.546Z,9.40
2018-12-14T12:26:46.217Z,8.23
2018-12-14T12:29:13.983Z,8.47
2018-12-14T12:31:43.755Z,7.40
2018-12-14T12:34:16.341Z,8.20
2018-12-14T12:36:46.090Z,8.03
2018-12-14T12:39:15.840Z,8.67
2018-12-14T12:41:45.357Z,8.17
2018-12-14T12:44:14.766Z,8.73
2018-12-14T12:46:44.653Z,10.80
2018-12-14T12:49:14.158Z,8.27
2018-12-14T12:51:46.858Z,7.23
2018-12-14T12:54:16.521Z,7.80
2018-12-14T12:56:44.305Z,8.70
2018-12-14T12:59:16.822Z,8.23
2018-12-14T13:01:46.705Z,8.97
2018-12-14T13:07:19.285Z,8.10
2018-12-14T13:09:53.622Z,9.60
2018-12-14T13:12:26.247Z,8.77
2018-12-14T13:22:56.328Z,8.40
2018-12-14T13:25:25.970Z,7.70
2018-12-14T13:27:55.674Z,9.07
2018-12-14T13:30:25.372Z,8.80
2018-12-14T13:32:58.497Z,7.87
2018-12-14T13:35:28.731Z,8.17
2018-12-14T13:37:58.243Z,7.70
2018-12-14T13:40:28.323Z,9.23
2018-12-14T13:42:57.691Z,7.40
2018-12-14T13:45:27.692Z,7.63
2018-12-14T13:47:57.257Z,7.03
2018-12-14T13:50:27.034Z,6.70
2018-12-14T13:52:57.566Z,7.23
2018-12-14T13:55:30.311Z,7.37
2018-12-14T14:01:02.688Z,7.87
2018-12-14T14:03:32.255Z,7.77
2018-12-14T14:06:04.972Z,6.90
2018-12-14T14:08:35.708Z,7.77
2018-12-14T14:14:06.068Z,6.90
2018-12-14T14:16:33.714Z,8.13
2018-12-14T14:22:06.338Z,7.00
2018-12-14T14:27:04.570Z,7.77
2018-12-14T14:32:36.761Z,7.33
2018-12-14T14:35:06.918Z,8.07
2018-12-14T14:40:38.850Z,7.10
2018-12-14T14:43:08.470Z,6.90
2018-12-14T14:45:38.150Z,7.23
2018-12-14T14:51:09.789Z,6.63
2018-12-14T14:53:39.708Z,6.77
2018-12-14T14:56:09.226Z,7.67
2018-12-14T14:58:41.682Z,6.50
2018-12-14T15:01:11.693Z,7.50
2018-12-14T15:03:41.622Z,7.13
2018-12-14T15:06:11.155Z,6.27
2018-12-14T15:08:40.963Z,7.23
2018-12-14T15:11:08.380Z,6.17
2018-12-14T15:13:38.454Z,6.97
2018-12-14T15:16:08.143Z,7.50
2018-12-14T15:18:37.870Z,7.37
2018-12-14T15:21:08.267Z,6.50
2018-12-14T15:23:38.882Z,7.47
2018-12-14T15:29:14.419Z,6.33
2018-12-14T15:34:49.541Z,7.47
2018-12-14T15:37:19.706Z,7.70
2018-12-14T15:39:49.162Z,7.00
2018-12-14T15:42:18.972Z,6.20
2018-12-14T15:44:48.603Z,7.90
2018-12-14T15:47:18.231Z,6.87
2018-12-14T15:49:47.983Z,7.53
2018-12-14T15:52:15.810Z,7.33
2018-12-14T15:54:46.625Z,7.87
2018-12-14T15:57:19.451Z,6.73
2018-12-14T15:59:48.934Z,7.80
2018-12-14T16:02:18.738Z,7.97
2018-12-14T16:07:54.242Z,8.30
2018-12-14T16:10:24.000Z,7.43
2018-12-14T16:12:53.746Z,7.80
2018-12-14T16:15:23.605Z,8.43
2018-12-14T16:20:56.023Z,7.90
2018-12-14T16:23:25.912Z,7.93
2018-12-14T16:25:55.715Z,7.93
2018-12-14T16:28:28.181Z,7.57
2018-12-14T16:30:56.088Z,7.53
2018-12-14T16:33:25.858Z,7.73
2018-12-14T16:38:58.184Z,6.70
2018-12-14T16:41:27.661Z,6.87
2018-12-14T16:43:58.291Z,7.00
2018-12-14T16:46:27.799Z,7.43
2018-12-14T16:48:57.272Z,8.73
2018-12-14T16:51:29.607Z,10.63
2018-12-14T16:54:04.204Z,9.63
2018-12-14T16:56:34.167Z,6.93
2018-12-14T16:59:03.741Z,6.77
2018-12-14T17:01:34.779Z,7.60
2018-12-14T17:07:08.793Z,7.10
2018-12-14T17:09:38.588Z,7.70
2018-12-14T17:12:08.438Z,9.27
2018-12-14T17:14:36.254Z,10.93
2018-12-14T17:17:03.874Z,13.23
2018-12-14T17:19:37.454Z,8.57
2018-12-14T17:22:07.231Z,11.37
2018-12-14T17:24:37.114Z,8.30
2018-12-14T17:27:06.736Z,6.87
2018-12-14T17:29:43.562Z,8.57
2018-12-14T17:32:13.465Z,8.37
2018-12-14T17:37:46.797Z,8.07
2018-12-14T17:40:16.611Z,7.03
2018-12-14T17:42:46.830Z,7.10
2018-12-14T17:48:22.013Z,7.33
2018-12-14T17:50:52.882Z,7.73
2018-12-14T17:53:22.371Z,6.73
2018-12-14T17:58:55.008Z,8.63
2018-12-14T18:04:27.889Z,7.53
2018-12-14T18:06:57.770Z,8.10
2018-12-14T18:09:28.065Z,6.73
2018-12-14T18:11:57.922Z,7.53
2018-12-14T18:17:30.751Z,7.70
2018-12-14T18:19:58.486Z,6.93
2018-12-14T18:22:29.105Z,6.93
2018-12-14T18:28:01.444Z,7.53
2018-12-14T18:30:31.383Z,7.47
2018-12-14T18:33:01.178Z,7.50
2018-12-14T18:35:30.678Z,7.13
2018-12-14T18:37:58.565Z,6.70
2018-12-14T18:40:28.350Z,9.67
2018-12-14T18:42:58.324Z,10.70
2018-12-14T18:45:29.197Z,6.83
2018-12-14T18:47:59.133Z,7.77
2018-12-14T18:53:31.874Z,6.43
2018-12-14T18:59:05.006Z,6.67
2018-12-14T19:01:34.559Z,6.70
2018-12-14T19:04:04.475Z,6.20
2018-12-14T19:06:34.241Z,6.73
2018-12-14T19:09:05.007Z,6.27
2018-12-14T19:11:34.674Z,6.10
2018-12-14T19:14:04.595Z,5.83
2018-12-14T19:16:34.532Z,6.60
2018-12-14T19:19:04.294Z,4.80
2018-12-14T19:21:33.980Z,5.33
2018-12-14T19:24:03.898Z,11.40
2018-12-14T19:26:33.903Z,8.17
2018-12-14T19:29:03.815Z,8.13
2018-12-14T19:31:36.328Z,8.87
2018-12-14T19:37:09.230Z,5.13
2018-12-14T19:39:39.183Z,6.00
2018-12-14T19:42:09.054Z,5.23
2018-12-14T19:44:37.141Z,6.67
2018-12-14T19:47:07.262Z,4.57
2018-12-14T19:49:37.323Z,5.30
2018-12-14T19:52:07.373Z,4.13
2018-12-14T19:54:35.766Z,7.27
2018-12-14T19:57:05.429Z,7.40
2018-12-14T19:59:35.446Z,7.17
2018-12-14T20:02:05.535Z,6.27
2018-12-14T20:04:35.407Z,4.50
2018-12-14T20:10:08.855Z,4.10
2018-12-14T20:12:38.467Z,7.20
2018-12-14T20:15:08.504Z,7.13
2018-12-14T20:17:38.378Z,6.90
2018-12-14T20:23:11.747Z,7.80
2018-12-14T20:25:41.552Z,8.07
2018-12-14T20:28:11.375Z,6.93
2018-12-14T20:33:47.107Z,5.67
2018-12-14T20:36:17.154Z,5.07
2018-12-14T20:41:49.895Z,4.20
2018-12-14T20:44:19.724Z,6.23
2018-12-14T20:46:49.886Z,4.93
2018-12-14T20:49:19.649Z,5.10
2018-12-14T20:51:49.434Z,4.47
2018-12-14T20:54:19.534Z,4.63
2018-12-14T20:56:51.788Z,4.90
2018-12-14T20:59:21.197Z,4.80
2018-12-14T21:01:51.093Z,5.70
2018-12-14T21:04:21.032Z,5.53
2018-12-14T21:06:51.194Z,5.50
2018-12-14T21:09:18.490Z,5.07
2018-12-14T21:11:48.212Z,4.17
2018-12-14T21:14:18.465Z,7.20
2018-12-14T21:16:48.520Z,4.40
2018-12-14T21:19:18.615Z,5.50
2018-12-14T21:24:51.450Z,5.90
2018-12-14T21:27:21.335Z,6.37
2018-12-14T21:29:48.986Z,4.23
2018-12-14T21:32:19.080Z,5.50
2018-12-14T21:34:48.929Z,5.30
2018-12-14T21:37:18.770Z,4.87
2018-12-14T21:39:49.738Z,8.33
2018-12-14T21:42:23.490Z,7.20
2018-12-14T21:44:54.318Z,7.27
2018-12-14T21:47:24.403Z,6.37
2018-12-14T21:54:48.678Z,7.53
2018-12-14T21:57:18.558Z,7.80
2018-12-14T21:59:51.416Z,8.53
2018-12-14T22:05:27.271Z,7.97
2018-12-14T22:10:58.107Z,7.30
2018-12-14T22:13:27.202Z,7.87
2018-12-14T22:19:00.131Z,8.63
2018-12-14T22:24:34.492Z,7.93
2018-12-14T22:27:07.367Z,9.00
2018-12-14T22:29:37.429Z,8.70
2018-12-14T22:35:10.285Z,8.00
2018-12-14T22:37:40.387Z,7.73
2018-12-14T22:43:14.310Z,7.97
2018-12-14T22:45:42.005Z,6.93
2018-12-14T22:48:12.138Z,7.73
2018-12-14T22:56:47.905Z,7.63
2018-12-14T22:59:17.737Z,8.03
2018-12-14T23:01:47.726Z,7.60
2018-12-14T23:04:17.466Z,7.80
2018-12-14T23:06:47.643Z,8.73
2018-12-14T23:12:20.419Z,8.67
2018-12-14T23:14:50.130Z,8.07
2018-12-14T23:17:20.106Z,8.47
2018-12-14T23:19:50.211Z,9.30
2018-12-14T23:22:20.237Z,9.30
2018-12-14T23:24:48.205Z,8.00
2018-12-14T23:27:19.134Z,10.13
2018-12-14T23:29:49.176Z,9.33
2018-12-14T23:32:19.016Z,8.33
2018-12-14T23:37:52.227Z,8.13
2018-12-14T23:40:24.962Z,8.67
2018-12-14T23:42:54.915Z,8.10
2018-12-14T23:45:24.910Z,8.87
2018-12-14T23:47:54.816Z,8.70
2018-12-14T23:50:24.433Z,9.57
2018-12-14T23:52:54.323Z,8.90
2018-12-14T23:55:24.175Z,10.03
2018-12-14T23:57:54.224Z,10.40
